Time;durP1;ratioP1;P1;durP2;ratioP2;P2;SDS_P1;SDS_P2;PMS_P1;PMS_P2;Temp;Humidity;BMP_temperature;BMP_pressure;BME280_temperature;BME280_humidity;BME280_pressure;Samples;Min_cycle;Max_cycle;Signal;HPM_P1;HPM_P2
2021/04/03 00:00:58;;;;;;;38.73;12.65;;;;;;;9.00;100.00;99838.70;1661810;83;21605;-90
2021/04/03 00:03:27;;;;;;;38.55;12.80;;;;;;;9.04;100.00;99833.05;1695624;83;21604;-91
2021/04/03 00:05:53;;;;;;;31.95;12.70;;;;;;;8.95;100.00;99823.11;1673598;83;21188;-90
2021/04/03 00:08:24;;;;;;;33.60;12.47;;;;;;;9.00;100.00;99828.46;1695429;83;21970;-90
2021/04/03 00:10:54;;;;;;;31.87;12.55;;;;;;;8.93;100.00;99830.62;1695326;83;21188;-90
2021/04/03 00:13:24;;;;;;;33.92;13.80;;;;;;;8.95;100.00;99829.83;1695485;83;21172;-91
2021/04/03 00:15:50;;;;;;;44.63;15.88;;;;;;;8.93;100.00;99825.24;1695790;83;21149;-91
2021/04/03 00:18:19;;;;;;;50.20;15.98;;;;;;;8.85;100.00;99822.54;1695557;83;21002;-91
2021/04/03 00:20:48;;;;;;;42.62;17.00;;;;;;;8.88;100.00;99812.60;1695281;83;21221;-91
2021/04/03 00:23:17;;;;;;;47.27;16.67;;;;;;;8.85;100.00;99821.20;1673530;83;21025;-90
2021/04/03 00:25:43;;;;;;;42.50;16.45;;;;;;;8.92;100.00;99817.72;1695530;83;21160;-90
2021/04/03 00:28:08;;;;;;;46.18;16.35;;;;;;;8.90;100.00;99809.12;1695338;83;21042;-90
2021/04/03 00:30:35;;;;;;;48.28;17.50;;;;;;;8.97;100.00;99817.73;1695235;83;21088;-90
2021/04/03 00:33:03;;;;;;;47.17;17.17;;;;;;;8.95;100.00;99815.84;1695190;83;21226;-90
2021/04/03 00:35:33;;;;;;;53.08;16.90;;;;;;;8.95;100.00;99815.84;1695184;83;21155;-90
2021/04/03 00:38:02;;;;;;;47.58;16.90;;;;;;;8.88;100.00;99812.60;1695373;84;21340;-90
2021/04/03 00:40:39;;;;;;;45.25;16.48;;;;;;;8.83;100.00;99806.70;1695357;83;21558;-90
2021/04/03 00:43:12;;;;;;;40.78;16.40;;;;;;;8.76;100.00;99793.25;1695119;83;21093;-89
2021/04/03 00:45:38;;;;;;;42.30;15.75;;;;;;;8.79;100.00;99798.09;1695210;83;22054;-89
2021/04/03 00:48:06;;;;;;;41.42;15.88;;;;;;;8.83;100.00;99797.84;1695159;83;21209;-89
2021/04/03 00:50:42;;;;;;;39.73;16.00;;;;;;;8.92;100.00;99798.11;1695267;83;21156;-88
2021/04/03 00:53:16;;;;;;;41.98;14.95;;;;;;;8.89;100.00;99806.17;1711355;83;21128;-88
2021/04/03 00:55:42;;;;;;;41.08;15.98;;;;;;;8.87;100.00;99802.39;1715274;83;21208;-88
2021/04/03 00:58:09;;;;;;;39.23;14.60;;;;;;;8.90;100.00;99802.41;1691160;83;21200;-88
2021/04/03 01:00:35;;;;;;;48.00;15.20;;;;;;;8.75;100.00;99803.20;1714991;83;21171;-88
2021/04/03 01:03:01;;;;;;;48.15;15.10;;;;;;;8.81;100.00;99802.67;1715106;83;21053;-88
2021/04/03 01:05:28;;;;;;;37.90;14.55;;;;;;;8.68;100.00;99795.12;1715410;83;21253;-88
2021/04/03 01:07:55;;;;;;;38.20;14.30;;;;;;;8.66;100.00;99790.56;1715415;83;21195;-87
2021/04/03 01:10:31;;;;;;;46.23;15.65;;;;;;;8.70;100.00;99797.81;1715238;83;21219;-87
2021/04/03 01:13:33;;;;;;;38.83;14.05;;;;;;;8.64;100.00;99801.02;1715247;83;21258;-87
2021/04/03 01:16:10;;;;;;;46.83;15.83;;;;;;;8.67;100.00;99788.94;1715117;83;21231;-87
2021/04/03 01:19:28;;;;;;;47.95;14.65;;;;;;;8.68;100.00;99787.05;1712564;83;20938;-87
2021/04/03 01:22:38;;;;;;;47.20;15.70;;;;;;;8.68;100.00;99788.40;1715341;83;21288;-86
2021/04/03 01:25:21;;;;;;;49.95;16.27;;;;;;;8.63;100.00;99787.87;1715471;83;21553;-86
2021/04/03 01:28:07;;;;;;;47.00;16.55;;;;;;;8.73;100.00;99792.44;1712318;83;21172;-85
2021/04/03 01:30:35;;;;;;;38.75;15.53;;;;;;;8.69;100.00;99798.09;1711679;83;21172;-86
2021/04/03 01:33:12;;;;;;;45.80;16.73;;;;;;;8.57;100.00;99788.41;1715235;83;21493;-86
2021/04/03 01:36:03;;;;;;;48.65;17.05;;;;;;;8.67;100.00;99785.45;1715190;83;21167;-86
2021/04/03 01:38:44;;;;;;;52.62;19.45;;;;;;;8.69;100.00;99787.34;1715245;83;21234;-86
2021/04/03 01:41:11;;;;;;;54.20;19.07;;;;;;;8.58;100.00;99794.03;1712743;83;21364;-86
2021/04/03 01:43:42;;;;;;;49.95;18.20;;;;;;;8.58;100.00;99785.98;1715175;83;21239;-86
2021/04/03 01:46:09;;;;;;;47.88;17.60;;;;;;;8.68;100.00;99789.74;1715322;83;21101;-85
2021/04/03 01:48:38;;;;;;;45.17;16.67;;;;;;;8.64;100.00;99791.62;1715296;83;21196;-86
2021/04/03 01:51:05;;;;;;;53.15;18.90;;;;;;;8.65;100.00;99788.42;1715240;83;21192;-86
2021/04/03 01:53:33;;;;;;;49.80;18.80;;;;;;;8.68;100.00;99785.20;1726403;82;20985;-85
2021/04/03 01:56:01;;;;;;;51.18;18.73;;;;;;;8.73;100.00;99787.87;1728002;82;21545;-85
2021/04/03 01:58:30;;;;;;;51.85;18.65;;;;;;;8.75;100.00;99781.70;1717763;83;21671;-86
2021/04/03 02:00:58;;;;;;;46.95;17.42;;;;;;;8.77;100.00;99784.94;1728195;82;21592;-85
2021/04/03 02:03:25;;;;;;;45.98;18.40;;;;;;;8.83;100.00;99779.84;1727943;82;21242;-85
2021/04/03 02:05:53;;;;;;;48.17;17.98;;;;;;;8.81;100.00;99780.63;1727943;82;21116;-86
2021/04/03 02:08:20;;;;;;;50.63;18.23;;;;;;;8.78;100.00;99779.83;1727827;82;21144;-85
2021/04/03 02:10:48;;;;;;;50.78;18.45;;;;;;;8.90;100.00;99779.56;1717552;83;21216;-86
2021/04/03 02:13:15;;;;;;;53.95;18.82;;;;;;;8.89;100.00;99779.30;1727838;82;21485;-86
2021/04/03 02:15:43;;;;;;;51.10;18.48;;;;;;;8.90;100.00;99775.53;1728067;82;21152;-85
2021/04/03 02:18:09;;;;;;;57.95;19.70;;;;;;;8.80;100.00;99780.37;1727851;82;21128;-86
2021/04/03 02:20:36;;;;;;;52.53;18.15;;;;;;;8.78;100.00;99781.17;1727864;82;21069;-86
2021/04/03 02:23:03;;;;;;;50.80;17.98;;;;;;;8.82;100.00;99778.75;1727979;82;21112;-86
2021/04/03 02:25:29;;;;;;;52.00;18.12;;;;;;;8.82;100.00;99784.12;1727976;82;21112;-85
2021/04/03 02:27:55;;;;;;;54.03;18.77;;;;;;;8.80;100.00;99782.26;1727815;81;21237;-86
2021/04/03 02:30:23;;;;;;;53.28;20.45;;;;;;;8.81;100.00;99778.48;1730387;82;21044;-86
2021/04/03 02:32:54;;;;;;;51.68;18.50;;;;;;;8.82;100.00;99784.12;1727892;81;21179;-85
2021/04/03 02:35:23;;;;;;;59.10;19.67;;;;;;;8.92;100.00;99782.80;1671181;85;21168;-85
2021/04/03 02:37:57;;;;;;;52.40;17.98;;;;;;;8.85;100.00;99784.92;1671365;85;21514;-86
2021/04/03 02:40:27;;;;;;;43.65;18.02;;;;;;;8.83;100.00;99784.41;1671211;85;21680;-86
2021/04/03 02:43:27;;;;;;;47.83;17.52;;;;;;;8.83;100.00;99780.37;1671218;85;21198;-87
2021/04/03 02:46:34;;;;;;;50.17;18.62;;;;;;;8.89;100.00;99781.98;1671407;85;21163;-86
2021/04/03 02:49:05;;;;;;;54.60;19.77;;;;;;;8.91;100.00;99782.50;1671320;85;21168;-85
2021/04/03 02:51:36;;;;;;;48.17;18.30;;;;;;;8.93;100.00;99781.71;1670990;85;21585;-86
2021/04/03 02:54:09;;;;;;;51.20;18.05;;;;;;;9.00;100.00;99784.95;1672284;85;21258;-86
2021/04/03 02:56:41;;;;;;;49.77;17.82;;;;;;;8.96;100.00;99779.83;1677813;85;21101;-86
2021/04/03 02:59:18;;;;;;;47.13;18.25;;;;;;;8.97;100.00;99781.46;1677591;85;21659;-86
2021/04/03 03:01:47;;;;;;;50.12;19.67;;;;;;;9.02;100.00;99781.44;1660640;86;21240;-86
2021/04/03 03:04:16;;;;;;;50.23;18.12;;;;;;;9.03;100.00;99783.58;1662197;86;21125;-86
2021/04/03 03:06:45;;;;;;;46.55;18.25;;;;;;;9.05;100.00;99783.58;1662296;86;21676;-85
2021/04/03 03:09:15;;;;;;;45.88;17.17;;;;;;;9.03;100.00;99780.89;1662232;86;21590;-85
2021/04/03 03:11:46;;;;;;;41.98;16.65;;;;;;;9.07;100.00;99785.47;1560660;90;21206;-85
2021/04/03 03:14:15;;;;;;;53.65;19.10;;;;;;;9.12;100.00;99783.33;1581227;90;21242;-85
2021/04/03 03:16:43;;;;;;;46.25;18.30;;;;;;;9.16;100.00;99783.05;1581099;90;21187;-86
2021/04/03 03:19:11;;;;;;;45.50;18.17;;;;;;;9.19;100.00;99785.20;1581310;90;21383;-85
2021/04/03 03:21:39;;;;;;;42.45;17.80;;;;;;;9.17;100.00;99790.57;1581075;90;21183;-86
2021/04/03 03:24:08;;;;;;;43.65;17.40;;;;;;;9.15;100.00;99790.86;1581180;90;21279;-85
2021/04/03 03:26:35;;;;;;;45.98;18.30;;;;;;;9.13;100.00;99790.31;1593692;90;21198;-85
2021/04/03 03:29:04;;;;;;;43.98;18.40;;;;;;;9.09;100.00;99784.67;1593815;90;21206;-84
2021/04/03 03:31:30;;;;;;;51.53;19.92;;;;;;;9.15;100.00;99784.14;1602083;86;21279;-85
2021/04/03 03:33:57;;;;;;;56.37;21.48;;;;;;;9.18;100.00;99788.17;1633770;87;21083;-85
2021/04/03 03:36:26;;;;;;;56.20;20.45;;;;;;;9.18;100.00;99789.52;1633579;87;21210;-85
2021/04/03 03:38:53;;;;;;;73.30;24.27;;;;;;;9.15;100.00;99792.71;1622664;87;21276;-86
2021/04/03 03:41:21;;;;;;;62.70;23.10;;;;;;;9.16;100.00;99786.28;1606521;88;21205;-85
2021/04/03 03:43:47;;;;;;;78.25;24.77;;;;;;;9.17;100.00;99787.88;1584104;88;21217;-85
2021/04/03 03:46:13;;;;;;;75.67;24.63;;;;;;;9.17;100.00;99788.68;1606488;88;21166;-85
2021/04/03 03:48:39;;;;;;;72.85;25.45;;;;;;;9.21;100.00;99787.63;1606578;88;21222;-85
2021/04/03 03:51:05;;;;;;;71.28;26.48;;;;;;;9.26;100.00;99786.25;1606356;88;20975;-85
2021/04/03 03:53:31;;;;;;;72.37;25.55;;;;;;;9.33;100.00;99792.18;1606312;87;21019;-85
2021/04/03 03:55:57;;;;;;;70.32;23.98;;;;;;;9.36;100.00;99788.14;1606348;88;21926;-86
2021/04/03 03:58:23;;;;;;;68.42;23.40;;;;;;;9.37;100.00;99791.89;1606473;88;21104;-86
2021/04/03 04:00:50;;;;;;;67.90;25.62;;;;;;;9.38;100.00;99791.34;1606468;88;21206;-85
2021/04/03 04:03:16;;;;;;;73.75;25.77;;;;;;;9.38;100.00;99795.38;1606448;88;22575;-86
2021/04/03 04:05:42;;;;;;;62.98;23.15;;;;;;;9.33;100.00;99793.52;1606504;88;21086;-86
2021/04/03 04:08:08;;;;;;;66.12;25.43;;;;;;;9.16;100.00;99797.83;1637132;84;22012;-86
2021/04/03 04:10:34;;;;;;;61.83;23.83;;;;;;;9.04;100.00;99792.73;1704531;84;21045;-85
2021/04/03 04:13:04;;;;;;;70.08;24.72;;;;;;;9.12;100.00;99790.05;1704465;84;21172;-85
2021/04/03 04:15:29;;;;;;;67.97;23.38;;;;;;;9.15;100.00;99794.05;1704651;84;21148;-85
2021/04/03 04:17:56;;;;;;;66.45;23.90;;;;;;;9.15;100.00;99792.71;1704468;84;21133;-85
2021/04/03 04:20:23;;;;;;;67.32;25.32;;;;;;;8.94;100.00;99796.78;1704357;84;21243;-85
2021/04/03 04:22:49;;;;;;;70.08;25.95;;;;;;;8.80;100.00;99799.72;1710041;83;21142;-85
2021/04/03 04:25:15;;;;;;;64.50;23.60;;;;;;;8.90;100.00;99801.05;1727167;83;21068;-85
2021/04/03 04:27:41;;;;;;;66.87;23.85;;;;;;;8.93;100.00;99806.44;1727032;82;21180;-84
2021/04/03 04:30:09;;;;;;;66.10;23.05;;;;;;;8.99;100.00;99809.39;1727088;82;20942;-86
2021/04/03 04:32:44;;;;;;;62.10;22.02;;;;;;;9.04;100.00;99810.74;1726913;83;21436;-86
2021/04/03 04:35:11;;;;;;;60.55;21.90;;;;;;;9.17;100.00;99816.11;1727190;82;21132;-87
2021/04/03 04:37:39;;;;;;;68.60;24.47;;;;;;;9.00;100.00;99814.52;1727061;82;21112;-86
2021/04/03 04:40:07;;;;;;;60.17;23.35;;;;;;;9.06;100.00;99815.32;1726990;82;21140;-87
2021/04/03 04:42:33;;;;;;;47.45;16.07;;;;;;;9.15;100.00;99819.59;1727036;82;22251;-85
2021/04/03 04:44:59;;;;;;;39.48;13.62;;;;;;;8.83;100.00;99824.70;1718780;83;21231;-84
2021/04/03 04:47:25;;;;;;;35.33;12.23;;;;;;;8.15;100.00;99832.29;1727083;82;21219;-84
2021/04/03 04:49:53;;;;;;;34.05;11.28;;;;;;;7.78;100.00;99843.64;1727262;82;21057;-84
2021/04/03 04:52:19;;;;;;;32.65;11.33;;;;;;;7.81;100.00;99845.80;1727033;82;21204;-85
2021/04/03 04:54:45;;;;;;;27.07;9.15;;;;;;;8.01;100.00;99846.45;1726977;83;21116;-85
2021/04/03 04:57:10;;;;;;;26.23;8.98;;;;;;;8.07;100.00;99856.94;1727119;83;21243;-85
2021/04/03 04:59:37;;;;;;;24.45;9.60;;;;;;;8.07;100.00;99859.62;1726877;83;21013;-85
2021/04/03 05:02:03;;;;;;;21.25;7.97;;;;;;;8.06;100.00;99842.42;1726953;83;21144;-84
2021/04/03 05:04:29;;;;;;;17.80;6.58;;;;;;;7.87;100.00;99864.34;1727293;83;21100;-85
2021/04/03 05:06:55;;;;;;;18.37;6.87;;;;;;;8.03;100.00;99873.30;1726866;83;20934;-85
2021/04/03 05:09:21;;;;;;;16.10;5.95;;;;;;;7.85;100.00;99879.08;1727143;82;21256;-85
2021/04/03 05:11:47;;;;;;;12.73;5.62;;;;;;;7.94;100.00;99886.91;1726935;82;21013;-85
2021/04/03 05:14:13;;;;;;;11.28;5.33;;;;;;;7.91;100.00;99891.45;1694024;82;21572;-86
2021/04/03 05:16:39;;;;;;;9.65;4.62;;;;;;;7.73;100.00;99899.38;1727124;83;20945;-85
2021/04/03 05:19:05;;;;;;;10.72;4.60;;;;;;;7.74;100.00;99903.70;1727197;82;21072;-86
2021/04/03 05:21:31;;;;;;;9.83;4.30;;;;;;;7.47;100.00;99916.64;1727143;83;21246;-85
2021/04/03 05:23:57;;;;;;;9.38;4.03;;;;;;;7.47;100.00;99916.64;1727138;82;20910;-86
2021/04/03 05:26:22;;;;;;;9.30;4.10;;;;;;;7.33;100.00;99915.98;1727137;82;21052;-85
2021/04/03 05:28:48;;;;;;;8.88;4.00;;;;;;;6.97;100.00;99916.96;1727018;83;21005;-85
2021/04/03 05:31:20;;;;;;;8.23;3.80;;;;;;;7.12;100.00;99917.13;1727110;83;20969;-86
2021/04/03 05:33:42;;;;;;;7.60;3.62;;;;;;;6.98;100.00;99916.72;1721982;83;21159;-85
2021/04/03 05:36:08;;;;;;;8.53;4.08;;;;;;;6.94;100.00;99920.98;1726999;83;21091;-84
2021/04/03 05:38:33;;;;;;;5.90;3.08;;;;;;;6.80;100.00;99920.56;1727225;82;21036;-86
2021/04/03 05:40:59;;;;;;;7.50;3.17;;;;;;;6.76;100.00;99913.27;1727237;82;21041;-85
2021/04/03 05:43:27;;;;;;;6.30;3.22;;;;;;;6.96;100.00;99918.03;1721873;83;21042;-86
2021/04/03 05:45:57;;;;;;;4.75;2.45;;;;;;;6.69;100.00;99928.73;1727338;82;21354;-87
2021/04/03 05:48:23;;;;;;;5.40;2.80;;;;;;;6.72;100.00;99930.37;1727038;82;21573;-85
2021/04/03 05:50:58;;;;;;;5.00;2.65;;;;;;;6.57;100.00;99939.56;1694391;83;21759;-85
2021/04/03 05:53:26;;;;;;;3.80;2.17;;;;;;;6.58;100.00;99941.98;1727182;82;21684;-85
2021/04/03 05:55:57;;;;;;;4.50;2.45;;;;;;;6.54;100.00;99952.91;1727897;82;21639;-84
2021/04/03 05:58:23;;;;;;;4.22;2.70;;;;;;;6.48;100.00;99954.45;1727869;82;21184;-89
2021/04/03 06:00:52;;;;;;;3.75;2.00;;;;;;;6.41;100.00;99956.48;1739727;80;21190;-88
2021/04/03 06:03:19;;;;;;;3.55;2.08;;;;;;;6.23;100.00;99962.40;1762052;80;20969;-86
2021/04/03 06:05:49;;;;;;;3.52;2.20;;;;;;;6.20;100.00;99962.89;1758264;80;21564;-87
2021/04/03 06:08:16;;;;;;;3.40;2.12;;;;;;;6.14;100.00;99961.20;1779306;80;21144;-87
2021/04/03 06:10:42;;;;;;;4.30;2.12;;;;;;;6.03;100.00;99971.47;1758626;80;21243;-86
2021/04/03 06:13:19;;;;;;;4.00;2.27;;;;;;;6.10;100.00;99976.14;1765366;80;21101;-86
2021/04/03 06:15:45;;;;;;;3.05;1.90;;;;;;;6.12;100.00;99986.07;1753384;80;21126;-86
2021/04/03 06:18:12;;;;;;;4.10;2.15;;;;;;;6.12;100.00;99986.88;1746260;82;21093;-86
2021/04/03 06:20:43;;;;;;;2.80;1.80;;;;;;;6.09;100.00;99987.91;1750318;80;21094;-85
2021/04/03 06:23:11;;;;;;;3.85;2.12;;;;;;;6.19;100.00;99990.71;1747905;80;21220;-89
2021/04/03 06:25:54;;;;;;;4.45;2.22;;;;;;;5.73;100.00;99999.85;1754825;80;21226;-88
2021/04/03 06:28:32;;;;;;;5.03;2.10;;;;;;;5.68;100.00;99996.05;1714208;82;21150;-88
2021/04/03 06:31:02;;;;;;;4.40;2.15;;;;;;;5.90;100.00;100006.82;1721683;82;21269;-88
2021/04/03 06:33:28;;;;;;;4.80;2.33;;;;;;;6.08;100.00;100012.48;1677688;84;21191;-88
2021/04/03 06:36:09;;;;;;;4.05;2.00;;;;;;;5.88;100.00;100011.62;1724409;82;21266;-89
2021/04/03 06:38:37;;;;;;;2.65;1.67;;;;;;;5.99;100.00;100014.48;1730603;82;21183;-85
2021/04/03 06:41:27;;;;;;;2.87;1.90;;;;;;;6.18;100.00;100018.53;1730719;82;21154;-87
2021/04/03 06:44:07;;;;;;;3.27;1.87;;;;;;;5.78;100.00;100016.79;1729062;82;21230;-88
2021/04/03 06:46:37;;;;;;;4.58;1.80;;;;;;;5.86;100.00;100015.06;1688351;84;21193;-89
2021/04/03 06:49:04;;;;;;;5.25;1.72;;;;;;;5.82;100.00;100009.89;1730672;82;22098;-89
2021/04/03 06:51:32;;;;;;;2.95;1.67;;;;;;;6.05;100.00;100006.81;1730688;82;21222;-91
2021/04/03 06:54:01;;;;;;;2.33;1.57;;;;;;;6.25;100.00;100013.80;1728165;82;21222;-90
2021/04/03 06:56:36;;;;;;;2.80;1.55;;;;;;;6.45;100.00;100019.98;1717996;82;21168;-87
2021/04/03 06:59:26;;;;;;;3.58;2.00;;;;;;;6.63;100.00;100025.58;1718654;83;21599;-89
2021/04/03 07:01:57;;;;;;;2.65;1.60;;;;;;;6.67;100.00;100029.36;1718817;83;21397;-90
2021/04/03 07:04:44;;;;;;;3.30;1.65;;;;;;;6.77;100.00;100036.20;1718989;83;21167;-89
2021/04/03 07:07:10;;;;;;;5.17;1.90;;;;;;;6.69;100.00;100041.98;1694935;83;21193;-89
2021/04/03 07:09:38;;;;;;;3.55;1.72;;;;;;;6.66;100.00;100049.70;1718780;83;21630;-88
2021/04/03 07:12:07;;;;;;;3.08;1.65;;;;;;;6.35;100.00;100050.09;1655811;85;21548;-88
2021/04/03 07:14:35;;;;;;;3.92;1.75;;;;;;;6.56;100.00;100053.87;1718821;83;22039;-90
2021/04/03 07:17:02;;;;;;;3.22;1.70;;;;;;;6.41;100.00;100054.97;1718698;83;21300;-91
2021/04/03 07:19:30;;;;;;;3.00;1.57;;;;;;;6.71;100.00;100057.28;1718566;83;21920;-89
2021/04/03 07:21:56;;;;;;;3.35;1.60;;;;;;;6.71;100.00;100056.48;1723809;81;21139;-90
2021/04/03 07:24:24;;;;;;;4.90;1.57;;;;;;;6.93;100.00;100055.14;1778257;80;21132;-90
2021/04/03 07:26:52;;;;;;;2.47;1.42;;;;;;;6.53;100.00;100068.25;1769675;81;21270;-89
2021/04/03 07:29:50;;;;;;;3.87;1.98;;;;;;;6.59;100.00;100059.27;1769702;81;21187;-88
2021/04/03 07:32:37;;;;;;;3.87;2.33;;;;;;;6.58;100.00;100055.75;1718660;83;21234;-88
2021/04/03 07:35:22;;;;;;;4.10;1.85;;;;;;;6.41;100.00;100051.48;1718697;83;21143;-89
2021/04/03 07:37:50;;;;;;;3.40;1.85;;;;;;;6.84;100.00;100042.71;1718944;83;21657;-90
2021/04/03 07:40:27;;;;;;;3.37;1.77;;;;;;;6.89;100.00;100042.78;1718589;83;22010;-89
2021/04/03 07:42:53;;;;;;;4.37;2.10;;;;;;;7.01;100.00;100043.46;1717269;83;21671;-90
2021/04/03 07:45:40;;;;;;;4.08;2.27;;;;;;;6.69;100.00;100052.69;1711180;82;21159;-91
2021/04/03 07:48:02;;;;;;;4.58;2.50;;;;;;;6.45;100.00;100056.11;1684447;84;21190;-90
2021/04/03 07:50:49;;;;;;;5.05;2.15;;;;;;;6.62;100.00;100066.80;1694285;84;21174;-91
2021/04/03 07:53:35;;;;;;;5.70;2.60;;;;;;;7.15;100.00;100061.85;1693763;84;21189;-91
2021/04/03 07:56:03;;;;;;;5.50;2.83;;;;;;;7.45;100.00;100059.50;1706616;83;21228;-92
2021/04/03 07:58:35;;;;;;;4.97;2.60;;;;;;;7.37;100.00;100062.62;1676203;83;21137;-93
2021/04/03 08:01:05;;;;;;;5.80;2.55;;;;;;;7.31;100.00;100060.14;1691413;83;21145;-92
2021/04/03 08:03:32;;;;;;;6.87;3.25;;;;;;;7.30;100.00;100063.89;1678474;85;21173;-94
2021/04/03 08:06:05;;;;;;;5.33;2.87;;;;;;;7.35;100.00;100066.61;1678417;85;21315;-93
2021/04/03 08:08:34;;;;;;;6.50;2.87;;;;;;;7.39;100.00;100075.25;1662883;86;21170;-94
2021/04/03 08:11:15;;;;;;;6.75;2.65;;;;;;;7.69;100.00;100081.99;1668297;86;21316;-93
2021/04/03 08:13:51;;;;;;;6.17;2.90;;;;;;;7.76;100.00;100085.80;1695477;81;21243;-93
2021/04/03 08:16:19;;;;;;;6.15;3.08;;;;;;;7.73;100.00;100089.30;1715142;83;21183;-94
2021/04/03 08:18:54;;;;;;;6.10;3.02;;;;;;;7.95;100.00;100105.31;1703314;84;21782;-94
2021/04/03 08:21:22;;;;;;;6.70;3.25;;;;;;;7.89;100.00;100102.31;1702741;84;21155;-94
2021/04/03 08:23:54;;;;;;;6.33;3.05;;;;;;;7.92;100.00;100110.38;1702644;83;21619;-95
2021/04/03 08:26:23;;;;;;;7.55;3.25;;;;;;;7.68;100.00;100115.25;1729584;82;21218;-96
2021/04/03 08:28:50;;;;;;;7.92;3.42;;;;;;;7.85;100.00;100119.16;1727493;83;21044;-96
2021/04/03 08:31:23;;;;;;;6.72;3.00;;;;;;;7.93;100.00;100115.48;1740377;80;21977;-96
2021/04/03 08:33:52;;;;;;;7.10;3.42;;;;;;;8.08;100.00;100126.88;1736821;81;21655;-96
2021/04/03 08:36:25;;;;;;;10.53;3.50;;;;;;;7.94;100.00;100129.20;1727455;81;21158;-92
2021/04/03 08:38:53;;;;;;;7.47;3.40;;;;;;;7.70;100.00;100129.20;1690444;82;21229;-93
2021/04/03 08:41:23;;;;;;;7.45;3.77;;;;;;;7.90;100.00;100132.63;1679049;85;21274;-93
2021/04/03 08:43:50;;;;;;;8.50;4.10;;;;;;;7.84;100.00;100133.10;1677404;83;21324;-94
2021/04/03 08:46:19;;;;;;;10.18;4.72;;;;;;;7.99;100.00;100128.42;1677128;85;21223;-93
2021/04/03 08:48:48;;;;;;;8.65;4.08;;;;;;;7.85;100.00;100139.27;1673617;84;21213;-94
2021/04/03 08:51:15;;;;;;;9.58;3.67;;;;;;;7.55;100.00;100138.42;1673344;85;22090;-93
2021/04/03 08:53:50;;;;;;;9.23;4.20;;;;;;;7.64;100.00;100143.61;1674167;85;21130;-93
2021/04/03 08:56:20;;;;;;;9.20;4.70;;;;;;;7.60;100.00;100146.53;1684543;83;21910;-96
2021/04/03 08:58:47;;;;;;;8.35;3.95;;;;;;;7.59;100.00;100158.30;1679041;83;21292;-95
2021/04/03 09:01:13;;;;;;;10.38;4.25;;;;;;;7.67;100.00;100166.70;1648305;86;21163;-96
2021/04/03 09:03:39;;;;;;;8.48;4.03;;;;;;;7.64;100.00;100168.55;1674347;85;21259;-95
2021/04/03 09:06:06;;;;;;;8.88;4.08;;;;;;;7.65;100.00;100171.53;1674921;85;21581;-95
2021/04/03 09:08:33;;;;;;;9.00;4.20;;;;;;;7.34;100.00;100178.38;1673697;85;21208;-95
2021/04/03 09:11:03;;;;;;;8.48;4.33;;;;;;;7.56;100.00;100173.04;1671899;84;21180;-94
2021/04/03 09:13:59;;;;;;;9.88;4.65;;;;;;;7.52;100.00;100171.90;1673241;85;21141;-95
2021/04/03 09:16:37;;;;;;;8.63;4.45;;;;;;;7.72;100.00;100172.14;1671166;85;21201;-96
2021/04/03 09:19:05;;;;;;;8.15;4.10;;;;;;;7.51;100.00;100176.45;1670309;85;21176;-96
2021/04/03 09:21:32;;;;;;;9.58;4.53;;;;;;;7.57;100.00;100174.65;1673050;84;21329;-94
2021/04/03 09:23:58;;;;;;;9.00;4.12;;;;;;;7.36;100.00;100178.14;1673565;85;21194;-95
2021/04/03 09:26:33;;;;;;;10.60;4.35;;;;;;;7.55;100.00;100178.10;1673578;85;21624;-96
2021/04/03 09:29:11;;;;;;;9.83;3.98;;;;;;;7.48;100.00;100187.68;1673735;85;21259;-96
2021/04/03 09:31:43;;;;;;;10.32;4.45;;;;;;;7.76;100.00;100185.05;1634978;87;21226;-95
2021/04/03 09:34:10;;;;;;;8.85;4.30;;;;;;;7.47;100.00;100195.45;1634841;87;21361;-95
2021/04/03 09:36:50;;;;;;;9.08;4.10;;;;;;;7.54;100.00;100200.63;1646299;87;21186;-96
2021/04/03 09:39:19;;;;;;;7.53;4.08;;;;;;;7.66;100.00;100197.81;1646382;86;21249;-94
2021/04/03 09:41:52;;;;;;;8.58;4.12;;;;;;;7.63;100.00;100195.63;1689556;84;21230;-93
2021/04/03 09:44:18;;;;;;;7.37;3.77;;;;;;;7.81;100.00;100197.18;1663967;86;21271;-95
2021/04/03 09:46:45;;;;;;;8.05;4.10;;;;;;;8.00;100.00;100195.80;1648165;85;21207;-93
2021/04/03 09:49:12;;;;;;;8.45;3.77;;;;;;;7.82;100.00;100196.11;1675939;85;21170;-93
2021/04/03 09:51:38;;;;;;;8.38;3.80;;;;;;;7.93;100.00;100195.16;1675983;85;21595;-95
2021/04/03 09:54:05;;;;;;;7.42;3.60;;;;;;;8.02;100.00;100200.36;1676304;84;21605;-96
2021/04/03 09:56:32;;;;;;;8.25;3.98;;;;;;;8.06;100.00;100200.15;1676080;85;21582;-93
2021/04/03 09:59:00;;;;;;;11.20;4.08;;;;;;;8.18;100.00;100205.37;1674715;85;21149;-92
2021/04/03 10:01:27;;;;;;;9.35;4.33;;;;;;;7.93;100.00;100203.22;1669652;84;21854;-93
2021/04/03 10:03:55;;;;;;;13.43;4.65;;;;;;;8.10;100.00;100213.86;1668305;85;21162;-93
2021/04/03 10:06:22;;;;;;;9.23;4.60;;;;;;;7.17;100.00;100222.63;1665354;86;21657;-94
2021/04/03 10:08:49;;;;;;;8.75;3.95;;;;;;;7.69;100.00;100224.94;1668580;86;21731;-94
2021/04/03 10:11:16;;;;;;;8.20;4.10;;;;;;;7.57;100.00;100242.22;1669001;86;21224;-94
2021/04/03 10:13:44;;;;;;;8.83;4.33;;;;;;;7.35;100.00;100235.47;1668359;85;21368;-93
2021/04/03 10:16:10;;;;;;;8.90;4.10;;;;;;;7.48;100.00;100236.47;1685908;83;21256;-93
2021/04/03 10:18:36;;;;;;;10.45;4.12;;;;;;;7.63;100.00;100229.95;1689500;84;21579;-93
2021/04/03 10:21:03;;;;;;;11.93;4.95;;;;;;;7.74;100.00;100232.25;1690211;84;20980;-95
2021/04/03 10:23:29;;;;;;;8.88;4.10;;;;;;;7.59;100.00;100235.55;1689810;84;21214;-93
2021/04/03 10:25:55;;;;;;;7.03;4.00;;;;;;;7.58;100.00;100231.23;1689972;84;21071;-92
2021/04/03 10:28:21;;;;;;;9.03;4.37;;;;;;;7.94;100.00;100234.34;1737138;80;21039;-93
2021/04/03 10:30:48;;;;;;;10.18;4.62;;;;;;;8.12;100.00;100243.95;1782632;80;21586;-96
2021/04/03 10:33:13;;;;;;;10.05;4.55;;;;;;;8.36;100.00;100245.81;1760655;80;21670;-95
2021/04/03 10:35:39;;;;;;;10.48;4.22;;;;;;;8.43;100.00;100255.02;1782216;79;21248;-94
2021/04/03 10:38:05;;;;;;;10.60;5.10;;;;;;;8.09;100.00;100264.55;1779932;79;21428;-94
2021/04/03 10:40:31;;;;;;;10.53;4.97;;;;;;;7.79;100.00;100274.40;1782221;80;20905;-93
2021/04/03 10:42:57;;;;;;;10.38;5.00;;;;;;;7.79;100.00;100274.40;1782284;80;20933;-93
2021/04/03 10:45:24;;;;;;;9.90;4.47;;;;;;;8.10;100.00;100271.03;1756255;80;20944;-93
2021/04/03 10:47:51;;;;;;;10.30;5.20;;;;;;;8.11;100.00;100275.86;1684976;85;21307;-93
2021/04/03 10:50:17;;;;;;;10.35;5.10;;;;;;;8.21;100.00;100278.67;1685085;85;21206;-93
2021/04/03 10:52:43;;;;;;;11.38;4.85;;;;;;;8.09;100.00;100286.02;1685306;85;21197;-93
2021/04/03 10:55:10;;;;;;;13.00;5.80;;;;;;;7.69;100.00;100274.55;1647923;85;21723;-91
2021/04/03 10:57:36;;;;;;;13.45;5.67;;;;;;;7.60;100.00;100268.53;1684778;85;21215;-92
2021/04/03 11:00:04;;;;;;;13.18;5.62;;;;;;;7.61;100.00;100270.15;1684991;84;21830;-92
2021/04/03 11:02:30;;;;;;;13.38;5.97;;;;;;;7.64;100.00;100275.82;1628746;88;21216;-90
2021/04/03 11:04:56;;;;;;;13.58;6.00;;;;;;;7.35;100.00;100286.41;1629162;88;21109;-91
2021/04/03 11:07:22;;;;;;;12.93;5.83;;;;;;;7.42;100.00;100293.23;1629346;88;20971;-91
2021/04/03 11:09:49;;;;;;;13.72;6.10;;;;;;;7.36;100.00;100283.49;1629112;88;21206;-90
2021/04/03 11:12:15;;;;;;;11.78;5.80;;;;;;;7.59;100.00;100278.96;1629012;88;21220;-93
2021/04/03 11:14:42;;;;;;;13.65;6.12;;;;;;;7.60;100.00;100280.60;1627718;88;21221;-91
2021/04/03 11:17:10;;;;;;;15.18;5.72;;;;;;;7.90;100.00;100282.33;1619656;88;21216;-90
2021/04/03 11:19:37;;;;;;;12.60;6.08;;;;;;;8.08;100.00;100293.80;1619817;88;21205;-90
2021/04/03 11:22:04;;;;;;;15.18;6.33;;;;;;;7.81;100.00;100295.09;1619833;88;21217;-91
2021/04/03 11:24:31;;;;;;;13.20;6.17;;;;;;;7.76;100.00;100301.72;1619759;88;21326;-91
2021/04/03 11:26:57;;;;;;;11.85;6.03;;;;;;;7.73;100.00;100299.84;1619818;88;21193;-91
2021/04/03 11:29:23;;;;;;;16.00;6.20;;;;;;;7.92;100.00;100303.02;1619725;88;21007;-90
2021/04/03 11:31:48;;;;;;;13.48;6.78;;;;;;;8.21;100.00;100314.91;1619711;88;21043;-92
2021/04/03 11:34:24;;;;;;;;;;;;;;;;;;;;;